Time;durP1;ratioP1;P1;durP2;ratioP2;P2;SDS_P1;SDS_P2;PMS_P1;PMS_P2;Temp;Humidity;BMP_temperature;BMP_pressure;BME280_temperature;BME280_humidity;BME280_pressure;Samples;Min_cycle;Max_cycle;Signal;HPM_P1;HPM_P2
2022/12/17 13:07:39;;;;;;;22.42;11.70;;;;;;;-4.52;100.00;99513.06;4202146;28;20032;-74
2022/12/17 13:09:49;;;;;;;23.70;11.45;;;;;;;-4.43;100.00;99510.72;4201796;28;20039;-74
2022/12/17 13:12:07;;;;;;;22.23;10.95;;;;;;;-4.44;100.00;99513.66;4200203;28;20147;-74
2022/12/17 13:14:27;;;;;;;22.33;10.75;;;;;;;-4.43;100.00;99515.31;4199696;28;20043;-74
2022/12/17 13:16:47;;;;;;;25.75;11.82;;;;;;;-4.47;100.00;99508.75;4201814;28;20040;-74
2022/12/17 13:18:47;;;;;;;20.25;10.40;;;;;;;-4.52;100.00;99510.34;4198158;28;20070;-74
2022/12/17 13:21:18;;;;;;;22.77;10.52;;;;;;;-4.56;100.00;99519.19;4202132;28;20058;-74
2022/12/17 13:23:28;;;;;;;24.95;11.27;;;;;;;-4.57;100.00;99523.78;4193994;28;20126;-74
2022/12/17 13:25:28;;;;;;;27.27;11.18;;;;;;;-4.55;100.00;99518.13;4201308;28;20522;-74
2022/12/17 13:27:32;;;;;;;22.33;10.88;;;;;;;-4.51;100.00;99519.28;4200978;28;20044;-74
2022/12/17 13:29:36;;;;;;;27.60;15.52;;;;;;;-4.47;100.00;99524.97;4202420;28;20060;-74
2022/12/17 13:32:13;;;;;;;24.23;12.60;;;;;;;-4.34;100.00;99532.69;4201981;28;20060;-74
2022/12/17 13:34:21;;;;;;;22.65;11.77;;;;;;;-4.29;100.00;99532.75;4197736;28;20040;-74
2022/12/17 13:36:29;;;;;;;23.27;12.23;;;;;;;-4.32;100.00;99531.34;4200177;28;20067;-74
2022/12/17 13:38:42;;;;;;;22.25;11.63;;;;;;;-4.36;100.00;99534.81;4200962;28;20075;-74
2022/12/17 13:40:43;;;;;;;25.77;13.38;;;;;;;-4.40;100.00;99531.00;4202121;28;20074;-74
2022/12/17 13:42:45;;;;;;;26.05;12.88;;;;;;;-4.45;100.00;99537.16;4199519;28;20494;-74
2022/12/17 13:44:46;;;;;;;27.48;12.45;;;;;;;-4.49;100.00;99537.91;4200591;28;20098;-74
2022/12/17 13:46:49;;;;;;;26.35;13.68;;;;;;;-4.52;100.00;99541.94;4200776;28;20522;-74
2022/12/17 13:48:56;;;;;;;33.55;17.95;;;;;;;-4.54;100.00;99539.50;4202921;28;20040;-74
2022/12/17 13:51:00;;;;;;;37.72;18.17;;;;;;;-4.56;100.00;99538.94;4199882;28;20036;-74
2022/12/17 13:53:11;;;;;;;28.08;15.35;;;;;;;-4.57;100.00;99542.69;4199115;28;20388;-74
2022/12/17 13:55:25;;;;;;;47.40;21.20;;;;;;;-4.57;100.00;99539.19;4200505;28;20040;-74
2022/12/17 13:57:25;;;;;;;49.05;20.15;;;;;;;-4.54;100.00;99544.91;4200972;28;20383;-75
2022/12/17 13:59:25;;;;;;;31.63;14.60;;;;;;;-4.54;100.00;99544.91;4201639;28;20075;-74
2022/12/17 14:01:26;;;;;;;36.40;17.25;;;;;;;-4.57;100.00;99545.41;4200922;28;20429;-75
2022/12/17 14:03:26;;;;;;;33.65;14.73;;;;;;;-4.54;100.00;99547.63;4199443;28;20057;-74
2022/12/17 14:05:32;;;;;;;31.42;16.23;;;;;;;-4.55;100.00;99547.84;4201741;28;20058;-74
2022/12/17 14:07:36;;;;;;;29.35;15.35;;;;;;;-4.58;100.00;99551.06;4144036;28;20052;-75
2022/12/17 14:09:41;;;;;;;27.48;15.32;;;;;;;-4.65;100.00;99543.16;4141974;28;20036;-74
2022/12/17 14:14:01;;;;;;;34.58;16.80;;;;;;;-4.74;100.00;99560.06;4196723;28;20454;-75
2022/12/17 14:16:02;;;;;;;38.17;20.27;;;;;;;-4.80;100.00;99559.16;4201777;28;20568;-75
2022/12/17 14:18:03;;;;;;;32.33;17.77;;;;;;;-4.80;100.00;99556.47;4199798;28;20031;-74
2022/12/17 14:20:13;;;;;;;32.08;17.23;;;;;;;-4.86;100.00;99554.78;4202455;28;20403;-75
2022/12/17 14:22:37;;;;;;;29.83;15.50;;;;;;;-4.91;100.00;99558.22;4199453;28;20125;-75
2022/12/17 14:24:38;;;;;;;25.27;14.35;;;;;;;-4.94;100.00;99569.53;4205313;28;20315;-75
2022/12/17 14:26:53;;;;;;;26.65;14.00;;;;;;;-4.98;100.00;99564.88;4202964;28;20066;-75
2022/12/17 14:28:54;;;;;;;25.30;13.10;;;;;;;-4.95;100.00;99561.69;4200814;28;20385;-74
2022/12/17 14:31:06;;;;;;;32.30;15.65;;;;;;;-4.86;100.00;99570.97;4202431;28;20032;-75
2022/12/17 14:33:40;;;;;;;26.67;14.35;;;;;;;-4.82;100.00;99577.50;4201223;28;20453;-74
2022/12/17 14:35:40;;;;;;;;;;;;;;;-4.89;100.00;99579.56;4174519;28;20044;-74
2022/12/17 14:37:45;;;;;;;27.33;13.13;;;;;;;-4.99;100.00;99571.34;4201856;28;20384;-75
2022/12/17 14:39:47;;;;;;;23.88;14.45;;;;;;;-5.06;100.00;99587.72;4202335;28;20206;-75
2022/12/17 14:44:19;;;;;;;26.92;14.35;;;;;;;-5.20;100.00;99575.66;4201482;28;20086;-74
2022/12/17 14:46:21;;;;;;;27.33;13.98;;;;;;;-5.27;100.00;99581.22;4199770;28;20773;-74
2022/12/17 14:48:59;;;;;;;26.73;13.25;;;;;;;-5.33;100.00;99584.09;4201549;28;20052;-75
2022/12/17 14:50:54;;;;;;;29.83;14.38;;;;;;;-5.43;100.00;99585.56;4199518;28;20137;-74
2022/12/17 14:52:57;;;;;;;22.50;12.85;;;;;;;-5.50;100.00;99581.41;4200385;28;20105;-75
2022/12/17 14:54:57;;;;;;;25.40;13.90;;;;;;;-5.55;100.00;99574.03;4201366;28;20372;-74
2022/12/17 14:56:58;;;;;;;26.10;14.73;;;;;;;-5.59;100.00;99585.59;4200202;28;20039;-75
2022/12/17 14:58:59;;;;;;;27.48;13.88;;;;;;;-5.67;100.00;99592.19;4201467;28;20429;-75
2022/12/17 15:01:07;;;;;;;28.70;13.73;;;;;;;-5.72;100.00;99584.00;4201783;28;20055;-75
2022/12/17 15:03:17;;;;;;;28.80;13.07;;;;;;;-5.79;100.00;99588.75;4137034;27;20057;-75
2022/12/17 15:05:18;;;;;;;26.75;12.95;;;;;;;-5.82;100.00;99586.56;4192767;28;20041;-75
2022/12/17 15:07:24;;;;;;;30.30;13.68;;;;;;;-5.86;100.00;99583.53;4202186;28;20059;-75
2022/12/17 15:09:24;;;;;;;28.50;14.10;;;;;;;-5.91;100.00;99591.56;4201467;28;20044;-74
2022/12/17 15:11:25;;;;;;;26.15;13.57;;;;;;;-5.96;100.00;99594.16;4201873;28;20543;-75
2022/12/17 15:13:25;;;;;;;32.30;14.52;;;;;;;-6.00;100.00;99585.75;4198652;28;20051;-75
2022/12/17 15:15:25;;;;;;;33.17;14.43;;;;;;;-6.04;100.00;99591.84;4201452;28;20459;-75
2022/12/17 15:17:26;;;;;;;23.75;13.45;;;;;;;-6.13;100.00;99599.50;4200831;28;20067;-75
2022/12/17 15:19:26;;;;;;;25.98;13.52;;;;;;;-6.18;100.00;99596.75;4202038;28;20039;-75
2022/12/17 15:21:26;;;;;;;26.77;13.70;;;;;;;-6.24;100.00;99603.91;4200686;28;20048;-74
2022/12/17 15:23:27;;;;;;;29.65;14.43;;;;;;;-6.28;100.00;99602.75;4201233;28;20416;-75
2022/12/17 15:25:28;;;;;;;26.60;13.45;;;;;;;-6.32;100.00;99606.16;4202357;28;20422;-75
2022/12/17 15:27:28;;;;;;;26.80;15.23;;;;;;;-6.39;100.00;99602.78;4200968;28;20113;-75
2022/12/17 15:29:30;;;;;;;30.23;15.63;;;;;;;-6.46;100.00;99602.94;4201222;28;20049;-75
2022/12/17 15:31:31;;;;;;;38.22;17.80;;;;;;;-6.52;100.00;99606.59;4200140;28;20384;-74
2022/12/17 15:33:31;;;;;;;30.42;16.45;;;;;;;-6.55;100.00;99615.94;4200874;28;20070;-75
2022/12/17 15:35:32;;;;;;;27.65;14.30;;;;;;;-6.59;100.00;99617.50;4201475;28;20052;-75
2022/12/17 15:37:32;;;;;;;29.75;15.45;;;;;;;-6.64;100.00;99616.56;4201101;28;20040;-74
2022/12/17 15:39:32;;;;;;;24.63;14.27;;;;;;;-6.68;100.00;99613.56;4201617;28;20089;-74
2022/12/17 15:43:52;;;;;;;29.33;13.02;;;;;;;-6.81;100.00;99616.50;4200062;28;20079;-75
2022/12/17 15:45:52;;;;;;;25.65;12.18;;;;;;;-6.86;100.00;99622.59;4168399;28;20040;-74
2022/12/17 15:47:52;;;;;;;30.90;16.08;;;;;;;-6.91;100.00;99621.66;4199626;28;20067;-75
2022/12/17 15:49:53;;;;;;;29.63;15.70;;;;;;;-6.91;100.00;99632.44;4201533;28;20130;-74
2022/12/17 15:51:53;;;;;;;28.27;15.82;;;;;;;-6.91;100.00;99618.97;4200514;28;20071;-75
2022/12/17 15:53:53;;;;;;;31.10;17.77;;;;;;;-6.96;100.00;99626.91;4200617;28;20071;-75
2022/12/17 15:56:03;;;;;;;33.45;18.85;;;;;;;-7.02;100.00;99620.63;4202198;28;20079;-75
2022/12/17 15:58:05;;;;;;;35.10;17.42;;;;;;;-7.07;100.00;99624.00;4198418;28;20048;-75
2022/12/17 16:00:06;;;;;;;36.00;18.00;;;;;;;-7.10;100.00;99626.38;4200239;28;20483;-75
2022/12/17 16:02:09;;;;;;;43.85;19.77;;;;;;;-7.14;100.00;99631.38;4195384;28;20024;-75
2022/12/17 16:04:09;;;;;;;43.15;19.95;;;;;;;-7.20;100.00;99644.94;4194778;28;20237;-75
2022/12/17 16:06:10;;;;;;;43.22;22.73;;;;;;;-7.27;100.00;99641.59;4198740;28;20099;-74
2022/12/17 16:08:10;;;;;;;31.48;16.83;;;;;;;-7.34;100.00;99639.00;4195518;28;20032;-75
2022/12/17 16:10:12;;;;;;;35.45;17.17;;;;;;;-7.39;100.00;99641.56;4195394;28;20028;-74
2022/12/17 16:12:12;;;;;;;33.38;17.40;;;;;;;-7.43;100.00;99630.47;4197635;28;20042;-74
2022/12/17 16:14:12;;;;;;;41.05;20.90;;;;;;;-7.47;100.00;99639.22;4194426;28;20032;-75
2022/12/17 16:16:13;;;;;;;30.75;19.10;;;;;;;-7.54;100.00;99644.69;4197164;28;20040;-74
2022/12/17 16:18:14;;;;;;;39.45;20.17;;;;;;;-7.58;100.00;99640.84;4195309;28;20137;-75
2022/12/17 16:20:15;;;;;;;37.45;20.75;;;;;;;-7.66;100.00;99644.69;4198522;28;20446;-75
2022/12/17 16:22:15;;;;;;;39.65;20.30;;;;;;;-7.72;100.00;99636.72;4201942;28;20032;-75
2022/12/17 16:24:15;;;;;;;45.00;21.25;;;;;;;-7.71;100.00;99636.47;4201193;28;20027;-75
2022/12/17 16:26:16;;;;;;;43.88;23.02;;;;;;;-7.74;100.00;99639.66;4199951;28;20028;-75
2022/12/17 16:28:16;;;;;;;40.58;20.55;;;;;;;-7.69;100.00;99653.22;4203326;28;20024;-75
2022/12/17 16:30:16;;;;;;;40.17;21.00;;;;;;;-7.79;100.00;99641.38;4204612;28;20035;-75
2022/12/17 16:32:17;;;;;;;49.42;25.92;;;;;;;-7.85;100.00;99647.69;4203106;28;20038;-75
2022/12/17 16:34:17;;;;;;;61.05;29.83;;;;;;;-7.94;100.00;99652.56;4203009;28;20027;-74
2022/12/17 16:36:19;;;;;;;91.05;44.95;;;;;;;-8.03;100.00;99644.00;4203008;28;20032;-74
2022/12/17 16:38:20;;;;;;;78.13;36.10;;;;;;;-8.12;100.00;99640.00;4200563;28;20191;-75
2022/12/17 16:40:21;;;;;;;50.53;26.70;;;;;;;-8.20;100.00;99640.31;4202948;28;20514;-74
2022/12/17 16:42:21;;;;;;;49.40;24.60;;;;;;;-8.27;100.00;99643.09;4200290;28;20080;-74
2022/12/17 16:44:21;;;;;;;43.83;20.42;;;;;;;-8.36;100.00;99636.41;4201930;28;20381;-75
2022/12/17 16:46:31;;;;;;;37.50;19.88;;;;;;;-8.40;100.00;99646.00;4201974;28;21089;-75
2022/12/17 16:48:36;;;;;;;40.10;19.65;;;;;;;-8.44;100.00;99641.28;4204289;28;20050;-74
2022/12/17 16:50:37;;;;;;;34.38;17.13;;;;;;;-8.50;100.00;99649.22;4202190;28;20163;-74
2022/12/17 16:52:37;;;;;;;37.10;18.02;;;;;;;-8.54;100.00;99645.31;4203621;28;20787;-75
2022/12/17 16:54:37;;;;;;;55.60;28.55;;;;;;;-8.51;100.00;99652.94;4203740;28;20496;-74
2022/12/17 16:56:38;;;;;;;77.68;38.95;;;;;;;-8.53;100.00;99651.50;4204625;28;20409;-74
2022/12/17 16:58:39;;;;;;;78.93;37.60;;;;;;;-8.61;100.00;99651.81;4203490;28;20044;-74
2022/12/17 17:00:39;;;;;;;56.83;27.58;;;;;;;-8.76;100.00;99652.22;4201815;28;20040;-74
2022/12/17 17:02:40;;;;;;;50.67;25.23;;;;;;;-8.77;100.00;99658.59;4203684;28;20044;-75
2022/12/17 17:04:40;;;;;;;50.25;24.77;;;;;;;-8.78;100.00;99657.78;4205688;28;20047;-75
2022/12/17 17:06:44;;;;;;;39.28;19.23;;;;;;;-8.76;100.00;99662.94;4205048;27;20482;-74
2022/12/17 17:08:44;;;;;;;29.23;17.17;;;;;;;-8.83;100.00;99665.69;4201986;28;20044;-74
2022/12/17 17:10:45;;;;;;;37.97;17.90;;;;;;;-8.89;100.00;99671.13;4201954;28;21236;-74
2022/12/17 17:12:45;;;;;;;28.52;16.08;;;;;;;-8.93;100.00;99668.09;4199796;28;20360;-74
2022/12/17 17:14:45;;;;;;;22.80;13.65;;;;;;;-8.97;100.00;99664.19;4204663;28;20076;-74
2022/12/17 17:16:46;;;;;;;34.47;19.02;;;;;;;-8.95;100.00;99663.97;4203071;28;20078;-74
2022/12/17 17:18:46;;;;;;;34.35;17.98;;;;;;;-9.04;100.00;99663.44;4201756;28;20051;-74
2022/12/17 17:20:47;;;;;;;36.58;18.63;;;;;;;-9.10;100.00;99670.53;4204693;28;20495;-74
2022/12/17 17:22:48;;;;;;;36.20;18.23;;;;;;;-9.12;100.00;99666.41;4202361;28;20469;-74
2022/12/17 17:24:48;;;;;;;39.83;18.02;;;;;;;-9.17;100.00;99679.66;4203878;28;20047;-74
2022/12/17 17:26:50;;;;;;;33.25;17.60;;;;;;;-9.21;100.00;99678.44;4204271;28;20500;-75
2022/12/17 17:28:50;;;;;;;31.13;15.70;;;;;;;-9.23;100.00;99692.09;4203225;28;20101;-74
2022/12/17 17:30:57;;;;;;;31.05;17.08;;;;;;;-9.28;100.00;99688.41;4139557;28;20150;-74
2022/12/17 17:32:58;;;;;;;38.20;18.17;;;;;;;-9.31;100.00;99692.34;4119953;28;20797;-75
2022/12/17 17:34:58;;;;;;;28.90;15.75;;;;;;;-9.35;100.00;99697.34;4200288;28;20054;-75
2022/12/17 17:36:58;;;;;;;29.80;15.88;;;;;;;-9.37;100.00;99694.03;4203119;28;20887;-74
2022/12/17 17:39:00;;;;;;;29.55;15.50;;;;;;;-9.42;100.00;99693.09;4202673;28;20043;-74
2022/12/17 17:41:02;;;;;;;26.50;14.32;;;;;;;-9.49;100.00;99698.50;4201866;28;20075;-75
2022/12/17 17:43:02;;;;;;;35.47;15.87;;;;;;;-9.56;100.00;99697.72;4203226;28;20242;-74
2022/12/17 17:45:03;;;;;;;29.67;13.70;;;;;;;-9.64;100.00;99697.97;4199366;28;20048;-74
2022/12/17 17:47:03;;;;;;;33.22;17.58;;;;;;;-9.67;100.00;99703.78;4203395;28;20045;-73
2022/12/17 17:49:05;;;;;;;32.67;17.30;;;;;;;-9.69;100.00;99697.78;4200262;28;20053;-75
2022/12/17 17:51:10;;;;;;;34.33;16.73;;;;;;;-9.65;100.00;99704.38;4203176;28;20043;-75
2022/12/17 17:53:10;;;;;;;32.78;17.83;;;;;;;-9.69;100.00;99706.66;4199990;28;20139;-74
2022/12/17 17:55:10;;;;;;;44.20;22.00;;;;;;;-9.64;100.00;99708.69;4200502;28;20519;-75
2022/12/17 17:57:11;;;;;;;50.28;24.55;;;;;;;-9.70;100.00;99710.38;4203680;28;20111;-74
2022/12/17 17:59:14;;;;;;;40.92;20.50;;;;;;;-9.82;100.00;99709.44;4202779;28;20131;-74
2022/12/17 18:01:18;;;;;;;41.13;19.85;;;;;;;-9.89;100.00;99707.84;4200972;28;20044;-75
2022/12/17 18:03:18;;;;;;;27.50;14.80;;;;;;;-9.89;100.00;99707.84;4201026;28;20152;-74
2022/12/17 18:05:19;;;;;;;31.63;17.08;;;;;;;-9.95;100.00;99715.69;4199750;28;20079;-74
2022/12/17 18:07:19;;;;;;;37.35;17.75;;;;;;;-9.96;100.00;99722.06;4200748;28;20155;-74
2022/12/17 18:09:20;;;;;;;32.58;15.88;;;;;;;-10.02;100.00;99716.75;4198357;28;20068;-74
2022/12/17 18:11:21;;;;;;;32.30;16.67;;;;;;;-10.09;100.00;99710.59;4199995;28;20044;-74
2022/12/17 18:15:40;;;;;;;40.38;20.17;;;;;;;-10.03;100.00;99718.59;4199681;28;20043;-74
2022/12/17 18:17:41;;;;;;;43.83;21.00;;;;;;;-9.99;100.00;99719.84;4198189;28;20040;-74
2022/12/17 18:19:41;;;;;;;42.38;21.55;;;;;;;-10.04;100.00;99722.31;4200325;28;20040;-74
2022/12/17 18:21:42;;;;;;;42.78;20.33;;;;;;;-10.10;100.00;99731.19;4195967;28;20344;-74
2022/12/17 18:23:42;;;;;;;35.38;18.35;;;;;;;-10.17;100.00;99730.44;4169830;28;20040;-74
2022/12/17 18:25:43;;;;;;;36.13;16.67;;;;;;;-10.20;100.00;99725.50;4196901;28;20040;-74
2022/12/17 18:27:43;;;;;;;42.67;19.65;;;;;;;-10.26;100.00;99729.03;4199526;28;20395;-74
2022/12/17 18:29:44;;;;;;;51.45;22.95;;;;;;;-10.42;100.00;99733.03;4201662;28;20502;-74
2022/12/17 18:31:44;;;;;;;46.40;21.58;;;;;;;-10.53;100.00;99737.16;4202552;28;20054;-74
2022/12/17 18:33:51;;;;;;;41.35;19.48;;;;;;;-10.63;100.00;99736.78;4201296;28;20135;-75
2022/12/17 18:35:51;;;;;;;29.85;13.90;;;;;;;-10.75;100.00;99738.47;4203051;28;20391;-74
2022/12/17 18:37:51;;;;;;;46.10;23.02;;;;;;;-10.73;100.00;99743.63;4202381;28;20055;-74
2022/12/17 18:39:52;;;;;;;47.90;27.05;;;;;;;-10.74;100.00;99750.00;4201581;28;20044;-74
2022/12/17 18:44:12;;;;;;;35.22;17.00;;;;;;;-10.77;100.00;99748.53;4198867;28;20043;-74
2022/12/17 18:46:12;;;;;;;36.00;16.70;;;;;;;-10.79;100.00;99758.63;4203106;28;20036;-74
2022/12/17 18:48:13;;;;;;;34.75;17.05;;;;;;;-10.69;100.00;99753.66;4201794;28;20032;-74
2022/12/17 18:50:13;;;;;;;41.85;16.58;;;;;;;-10.60;100.00;99747.06;4202080;28;20031;-74
2022/12/17 18:52:13;;;;;;;34.17;15.88;;;;;;;-10.57;100.00;99756.53;4200146;28;20056;-74
2022/12/17 18:54:16;;;;;;;35.58;16.45;;;;;;;-10.67;100.00;99759.66;4197840;28;20044;-74
2022/12/17 18:56:17;;;;;;;34.00;16.27;;;;;;;-10.75;100.00;99767.91;4202552;28;20097;-74
2022/12/17 18:58:17;;;;;;;36.42;20.65;;;;;;;-10.84;100.00;99763.78;4138213;28;20053;-74
2022/12/17 19:00:17;;;;;;;47.58;21.73;;;;;;;-10.87;100.00;99765.03;4198419;28;20054;-74
2022/12/17 19:02:18;;;;;;;46.67;20.83;;;;;;;-10.91;100.00;99771.81;4200707;28;20115;-74
2022/12/17 19:04:20;;;;;;;37.08;18.42;;;;;;;-10.95;100.00;99767.09;4200160;28;20101;-74
2022/12/17 19:06:22;;;;;;;36.00;16.73;;;;;;;-10.98;100.00;99765.66;4201314;28;20460;-74
2022/12/17 19:08:23;;;;;;;31.42;16.90;;;;;;;-11.08;100.00;99766.09;4199362;28;20334;-74
2022/12/17 19:10:23;;;;;;;33.35;17.40;;;;;;;-11.17;100.00;99772.66;4197651;28;20399;-74
2022/12/17 19:12:23;;;;;;;38.05;17.05;;;;;;;-11.25;100.00;99778.22;4200439;28;20051;-74
2022/12/17 19:14:24;;;;;;;33.85;17.35;;;;;;;-11.41;100.00;99771.41;4199196;28;20070;-74
2022/12/17 19:16:26;;;;;;;41.47;20.33;;;;;;;-11.49;100.00;99774.28;4197655;28;20082;-74
2022/12/17 19:18:26;;;;;;;39.70;19.15;;;;;;;-11.59;100.00;99773.03;4201536;28;20036;-74
2022/12/17 19:20:27;;;;;;;35.05;17.48;;;;;;;-11.65;100.00;99777.34;4200018;28;20099;-74
2022/12/17 19:22:27;;;;;;;38.55;17.95;;;;;;;-11.65;100.00;99780.00;4199607;28;20758;-74
2022/12/17 19:24:28;;;;;;;46.13;20.45;;;;;;;-11.62;100.00;99776.94;4198563;28;20432;-74
2022/12/17 19:26:29;;;;;;;49.20;21.75;;;;;;;-11.63;100.00;99778.78;4200912;28;20123;-74
2022/12/17 19:28:29;;;;;;;49.13;22.83;;;;;;;-11.65;100.00;99777.34;4199745;28;20390;-74
2022/12/17 19:30:29;;;;;;;51.38;24.67;;;;;;;-11.69;100.00;99784.09;4199701;28;20079;-74
2022/12/17 19:32:30;;;;;;;48.15;22.13;;;;;;;-11.74;100.00;99783.91;4198901;28;20037;-74
2022/12/17 19:34:31;;;;;;;60.17;25.80;;;;;;;-11.52;100.00;99788.03;4198172;28;20043;-74
2022/12/17 19:36:33;;;;;;;50.78;23.13;;;;;;;-11.32;100.00;99785.41;4200421;28;20818;-74
2022/12/17 19:38:34;;;;;;;48.17;24.75;;;;;;;-11.29;100.00;99790.31;4189185;28;20192;-74
2022/12/17 19:40:34;;;;;;;51.47;23.05;;;;;;;-11.35;100.00;99794.63;4199820;28;20052;-74
2022/12/17 19:42:35;;;;;;;51.47;25.13;;;;;;;-11.39;100.00;99787.25;4198995;28;20303;-74
2022/12/17 19:44:35;;;;;;;53.85;26.00;;;;;;;-11.43;100.00;99794.81;4198787;28;20067;-74
2022/12/17 19:46:35;;;;;;;58.08;25.90;;;;;;;-11.50;100.00;99798.50;4200885;28;20040;-74
2022/12/17 19:48:38;;;;;;;56.60;27.90;;;;;;;-11.60;100.00;99793.56;4200365;28;20044;-74
2022/12/17 19:50:38;;;;;;;47.88;24.42;;;;;;;-11.65;100.00;99782.69;4199492;28;20487;-74
2022/12/17 19:52:38;;;;;;;55.97;25.25;;;;;;;-11.65;100.00;99788.03;4197907;28;20048;-74
2022/12/17 19:54:39;;;;;;;56.42;24.98;;;;;;;-11.72;100.00;99787.19;4201345;28;20046;-74
2022/12/17 19:56:40;;;;;;;51.13;22.85;;;;;;;-11.81;100.00;99769.75;4203800;28;20128;-74
2022/12/17 19:58:41;;;;;;;37.97;17.27;;;;;;;-11.86;100.00;99781.00;4202766;28;20052;-74
2022/12/17 20:00:42;;;;;;;41.15;18.50;;;;;;;-11.92;100.00;99787.13;4203957;28;20042;-74
2022/12/17 20:02:42;;;;;;;37.65;19.02;;;;;;;-12.01;100.00;99791.00;4199263;28;20510;-74
2022/12/17 20:04:42;;;;;;;36.42;18.33;;;;;;;-12.05;100.00;99787.13;4203464;28;20459;-74
2022/12/17 20:06:43;;;;;;;49.05;21.17;;;;;;;-12.12;100.00;99799.59;4204406;28;20135;-74
2022/12/17 20:08:44;;;;;;;50.90;22.92;;;;;;;-12.22;100.00;99798.13;4204313;28;20064;-74
2022/12/17 20:10:44;;;;;;;53.03;25.13;;;;;;;-12.28;100.00;99806.09;4202393;28;20318;-74
2022/12/17 20:12:44;;;;;;;56.80;26.00;;;;;;;-12.15;100.00;99792.00;4203155;28;20295;-74
2022/12/17 20:14:44;;;;;;;69.22;30.50;;;;;;;-12.09;100.00;99789.34;4203413;28;20503;-74
2022/12/17 20:16:51;;;;;;;75.80;36.55;;;;;;;-12.04;100.00;99794.09;4203101;28;20045;-74
2022/12/17 20:18:52;;;;;;;90.50;38.80;;;;;;;-12.06;100.00;99793.47;4203276;28;20130;-74
2022/12/17 20:21:02;;;;;;;104.90;43.65;;;;;;;-12.08;100.00;99792.84;4200951;28;20318;-73
2022/12/17 20:23:03;;;;;;;113.18;45.22;;;;;;;-12.11;100.00;99794.06;4202128;28;20059;-74
2022/12/17 20:25:06;;;;;;;99.75;40.70;;;;;;;-12.11;100.00;99802.06;4202260;28;20486;-74
2022/12/17 20:27:06;;;;;;;83.10;37.30;;;;;;;-12.14;100.00;99794.47;4204332;28;20046;-74
2022/12/17 20:29:08;;;;;;;84.32;34.10;;;;;;;-12.16;100.00;99795.66;4202319;28;20496;-74
2022/12/17 20:31:08;;;;;;;82.47;32.95;;;;;;;-12.19;100.00;99788.91;4203983;28;20040;-74
2022/12/17 20:33:09;;;;;;;60.15;30.02;;;;;;;-12.27;100.00;99789.06;4202087;28;20498;-74
2022/12/17 20:35:09;;;;;;;49.42;25.50;;;;;;;-12.34;100.00;99797.03;4203102;28;20475;-74
2022/12/17 20:37:09;;;;;;;47.20;21.77;;;;;;;-12.40;100.00;99784.50;4203367;28;20549;-74
2022/12/17 20:39:10;;;;;;;44.33;22.02;;;;;;;-12.48;100.00;99803.34;4202192;28;20135;-74
2022/12/17 20:41:23;;;;;;;45.85;20.88;;;;;;;-12.55;100.00;99805.13;4144826;28;20127;-73
2022/12/17 20:43:23;;;;;;;;;;;;;;;-12.59;100.00;99809.19;4153893;28;20056;-74
2022/12/17 20:45:24;;;;;;;46.00;21.80;;;;;;;-12.52;100.00;99808.22;4201486;28;19916;-74
2022/12/17 20:47:24;;;;;;;60.42;25.60;;;;;;;-12.58;100.00;99826.84;4202080;28;20043;-74
2022/12/17 20:49:24;;;;;;;68.55;25.60;;;;;;;-12.63;100.00;99814.13;4202002;28;20155;-74
2022/12/17 20:51:27;;;;;;;59.88;27.02;;;;;;;-12.67;100.00;99812.84;4200711;28;20462;-74
2022/12/17 20:53:27;;;;;;;68.95;27.75;;;;;;;-12.68;100.00;99818.38;4198298;28;20093;-74
2022/12/17 20:55:28;;;;;;;59.10;26.67;;;;;;;-12.70;100.00;99818.56;4200222;28;20048;-74
2022/12/17 20:57:28;;;;;;;78.10;28.90;;;;;;;-12.70;100.00;99823.91;4204316;28;20048;-74
2022/12/17 20:59:28;;;;;;;74.68;30.05;;;;;;;-12.72;100.00;99822.47;4203660;28;20495;-73
2022/12/17 21:01:31;;;;;;;66.78;28.27;;;;;;;-12.71;100.00;99824.09;4203407;28;20148;-73
2022/12/17 21:03:32;;;;;;;47.83;23.20;;;;;;;-12.73;100.00;99820.81;4199782;28;20044;-73
2022/12/17 21:05:34;;;;;;;44.22;21.23;;;;;;;-12.76;100.00;99822.84;4202720;28;20545;-74
2022/12/17 21:07:34;;;;;;;41.83;21.48;;;;;;;-12.85;100.00;99826.66;4198469;28;20048;-73
2022/12/17 21:09:35;;;;;;;46.65;23.02;;;;;;;-12.91;100.00;99827.44;4202679;28;20051;-74
2022/12/17 21:11:37;;;;;;;74.30;31.60;;;;;;;-12.92;100.00;99843.63;4202972;28;20036;-73
2022/12/17 21:13:37;;;;;;;70.75;31.20;;;;;;;-12.98;100.00;99834.59;4200694;28;20464;-73
2022/12/17 21:15:38;;;;;;;94.35;36.90;;;;;;;-12.98;100.00;99837.25;4139513;28;20135;-74
2022/12/17 21:17:38;;;;;;;89.18;35.67;;;;;;;-12.98;100.00;99831.91;4201769;28;20067;-73
2022/12/17 21:19:38;;;;;;;73.00;30.90;;;;;;;-12.95;100.00;99838.69;4202768;28;20115;-73
2022/12/17 21:21:39;;;;;;;55.78;29.17;;;;;;;-12.92;100.00;99840.97;4202708;28;20528;-73
2022/12/17 21:23:39;;;;;;;61.33;28.52;;;;;;;-12.94;100.00;99835.00;4200782;28;20512;-73
2022/12/17 21:25:40;;;;;;;69.00;28.30;;;;;;;-12.96;100.00;99843.19;4201509;28;20557;-73
2022/12/17 21:27:40;;;;;;;59.22;26.98;;;;;;;-13.00;100.00;99846.44;4202685;28;20036;-73
2022/12/17 21:29:40;;;;;;;44.72;22.50;;;;;;;-13.10;100.00;99852.09;4202127;28;20055;-73
2022/12/17 21:31:46;;;;;;;38.85;19.83;;;;;;;-13.12;100.00;99852.28;4204711;28;20162;-73
2022/12/17 21:33:48;;;;;;;45.20;21.08;;;;;;;-13.15;100.00;99854.53;4202601;28;20044;-73
2022/12/17 21:35:48;;;;;;;36.97;20.92;;;;;;;-13.08;100.00;99852.72;4202384;28;20036;-74
2022/12/17 21:37:49;;;;;;;40.88;19.77;;;;;;;-13.04;100.00;99854.81;4202231;28;20380;-75
2022/12/17 21:39:49;;;;;;;42.63;22.17;;;;;;;-13.09;100.00;99851.06;4202049;28;20036;-74
2022/12/17 21:44:11;;;;;;;49.90;20.98;;;;;;;-13.25;100.00;99854.84;4202339;28;20046;-74
2022/12/17 21:46:12;;;;;;;44.17;21.92;;;;;;;-13.28;100.00;99867.72;4202833;28;20107;-74
2022/12/17 21:48:13;;;;;;;51.55;22.23;;;;;;;-13.19;100.00;99863.91;4199944;28;20067;-74
2022/12/17 21:50:13;;;;;;;54.17;25.30;;;;;;;-13.18;100.00;99871.69;4200948;28;20035;-74
2022/12/17 21:52:14;;;;;;;61.47;26.63;;;;;;;-13.17;100.00;99870.66;4202271;28;20424;-74
2022/12/17 21:54:14;;;;;;;75.18;29.83;;;;;;;-13.12;100.00;99878.09;4202964;28;20452;-74
2022/12/17 21:56:16;;;;;;;70.28;30.42;;;;;;;-12.94;100.00;99872.31;4202176;28;20047;-74
2022/12/17 21:58:17;;;;;;;96.20;35.05;;;;;;;-12.84;100.00;99875.47;4203229;28;20039;-74
2022/12/17 22:00:18;;;;;;;86.80;33.30;;;;;;;-12.74;100.00;99873.31;4203335;28;20031;-74
2022/12/17 22:02:18;;;;;;;67.57;28.40;;;;;;;-12.61;100.00;99870.72;4137195;28;20520;-74
2022/12/17 22:04:18;;;;;;;60.08;25.55;;;;;;;-12.56;100.00;99870.16;4177093;28;20106;-74
2022/12/17 22:06:21;;;;;;;63.35;23.42;;;;;;;-12.51;100.00;99863.19;4201970;28;20519;-74
2022/12/17 22:08:21;;;;;;;55.97;23.40;;;;;;;-12.58;100.00;99870.31;4200761;28;20056;-74
2022/12/17 22:10:22;;;;;;;52.47;21.77;;;;;;;-12.63;100.00;99864.78;4201623;28;20046;-74
2022/12/17 22:14:41;;;;;;;45.47;18.40;;;;;;;-12.86;100.00;99875.66;4202248;28;20135;-74
2022/12/17 22:16:47;;;;;;;38.95;16.58;;;;;;;-13.02;100.00;99875.94;4201191;28;20096;-74
2022/12/17 22:18:48;;;;;;;42.92;16.45;;;;;;;-13.18;100.00;99868.19;4131523;28;20573;-74
2022/12/17 22:20:59;;;;;;;42.78;17.27;;;;;;;-13.31;100.00;99863.63;4198385;28;20093;-73
2022/12/17 22:22:59;;;;;;;39.00;17.13;;;;;;;-13.34;100.00;99866.63;4202248;28;20047;-74
2022/12/17 22:25:00;;;;;;;43.15;19.38;;;;;;;-13.30;100.00;99875.09;4201223;28;20044;-74
2022/12/17 22:27:00;;;;;;;44.13;18.05;;;;;;;-13.30;100.00;99873.25;4199309;28;20055;-74
2022/12/17 22:29:01;;;;;;;44.28;19.27;;;;;;;-13.12;100.00;99881.59;4202076;28;20036;-74
2022/12/17 22:33:23;;;;;;;45.88;17.48;;;;;;;-12.89;100.00;99876.06;4201154;28;20051;-74
2022/12/17 22:35:26;;;;;;;62.80;25.27;;;;;;;-12.87;100.00;99882.00;4202404;28;21323;-74
2022/12/17 22:37:26;;;;;;;67.30;27.33;;;;;;;-12.94;100.00;99886.44;4201209;28;20040;-74
2022/12/17 22:39:26;;;;;;;75.05;30.35;;;;;;;-13.04;100.00;99889.44;4201143;28;20071;-73